KCBF/CBF METAR and TAF weather

Enter ICAO airport designator
Station Type Date Time Source
KCBF METAR 2021/01/20 23:35 UTC NOAA

KCBF 202335Z AUTO 24004KT 10SM CLR 07/M04 A2985 RMK AO2


Station Type Date Time Source
KCBF Decoded METAR 2021/01/20 23:35 UTC NOAA

Council Bluffs, IA, United States (KCBF) 41-16N 095-46W
Jan 20, 2021 - 06:35 PM EST / 2021.01.20 2335 UTC
Wind: from the WSW (240 degrees) at 5 MPH (4 KT):0
Visibility: 10 mile(s):0
Sky conditions: clear
Temperature: 44 F (7 C)
Dew Point: 24 F (-4 C)
Relative Humidity: 45%
Pressure (altimeter): 29.85 in. Hg (1010 hPa)
ob: KCBF 202335Z AUTO 24004KT 10SM CLR 07/M04 A2985 RMK AO2
cycle: 23

Station Type Date Time Source
KCBF TAF UTC NOAA

Error!

Example: see airport list